Time;durP1;ratioP1;P1;durP2;ratioP2;P2;SDS_P1;SDS_P2;PMS_P1;PMS_P2;Temp;Humidity;BMP_temperature;BMP_pressure;BME280_temperature;BME280_humidity;BME280_pressure;Samples;Min_cycle;Max_cycle;Signal;HPM_P1;HPM_P2
2022/07/18 00:00:05;;;;;;;4.32;1.08;;;14.80;99.90;;;;;;5056316;28;20029;-82
2022/07/18 00:02:31;;;;;;;1.60;0.80;;;14.80;99.90;;;;;;5053996;28;20029;-82
2022/07/18 00:05:00;;;;;;;2.70;1.38;;;14.80;99.90;;;;;;5056564;28;20487;-82
2022/07/18 00:07:25;;;;;;;4.40;1.17;;;14.70;99.90;;;;;;5065882;28;20055;-82
2022/07/18 00:09:51;;;;;;;3.42;1.20;;;14.70;99.90;;;;;;5064653;28;20132;-82
2022/07/18 00:12:20;;;;;;;2.47;1.25;;;14.70;99.90;;;;;;5052565;28;20103;-83
2022/07/18 00:14:46;;;;;;;6.32;1.30;;;14.60;99.90;;;;;;5059486;28;20035;-82
2022/07/18 00:17:11;;;;;;;2.55;1.23;;;14.70;99.90;;;;;;5067475;28;20021;-82
2022/07/18 00:19:54;;;;;;;3.08;1.20;;;14.70;99.90;;;;;;5054269;28;20366;-82
2022/07/18 00:22:20;;;;;;;2.53;1.30;;;14.70;99.90;;;;;;5052775;28;20025;-82
2022/07/18 00:24:45;;;;;;;10.20;1.38;;;14.70;99.90;;;;;;5059680;28;20082;-83
2022/07/18 00:27:11;;;;;;;2.70;1.00;;;14.70;99.90;;;;;;5062521;28;20029;-83
2022/07/18 00:29:37;;;;;;;5.20;1.23;;;14.70;99.90;;;;;;5053529;28;20447;-82
2022/07/18 00:32:04;;;;;;;3.33;0.93;;;14.80;99.90;;;;;;5051973;28;20402;-83
2022/07/18 00:34:53;;;;;;;7.30;2.05;;;14.70;99.90;;;;;;5061555;28;20096;-83
2022/07/18 00:37:18;;;;;;;2.72;1.15;;;14.70;99.90;;;;;;5053639;28;20055;-82
2022/07/18 00:39:45;;;;;;;5.28;1.50;;;14.60;99.90;;;;;;5055041;28;20064;-82
2022/07/18 00:42:10;;;;;;;3.45;1.50;;;14.60;99.90;;;;;;5053572;28;20104;-82
2022/07/18 00:45:06;;;;;;;4.70;1.00;;;14.50;99.90;;;;;;5052671;28;20064;-82
2022/07/18 00:47:32;;;;;;;3.22;1.20;;;14.50;99.90;;;;;;5070861;28;20020;-82
2022/07/18 00:50:08;;;;;;;4.05;1.38;;;14.50;99.90;;;;;;5059048;28;20154;-82
2022/07/18 00:52:36;;;;;;;2.25;1.30;;;14.50;99.90;;;;;;5056793;28;20020;-82
2022/07/18 00:55:02;;;;;;;5.00;1.45;;;14.40;99.90;;;;;;5053113;28;20025;-83
2022/07/18 00:57:46;;;;;;;2.35;1.15;;;14.50;99.90;;;;;;5068171;28;20480;-83
2022/07/18 01:02:58;;;;;;;6.80;1.50;;;14.40;99.90;;;;;;5056655;28;20074;-82
2022/07/18 01:05:29;;;;;;;5.88;1.30;;;14.30;99.90;;;;;;5064187;28;20033;-83
2022/07/18 01:07:55;;;;;;;2.63;1.05;;;14.30;99.90;;;;;;5058302;28;20030;-83
2022/07/18 01:10:21;;;;;;;3.33;1.10;;;14.30;99.90;;;;;;5070811;28;20451;-83
2022/07/18 01:12:54;;;;;;;7.22;1.48;;;14.30;99.90;;;;;;5055763;28;20048;-83
2022/07/18 01:15:20;;;;;;;9.20;1.77;;;14.20;99.90;;;;;;5051351;28;20154;-82
2022/07/18 01:17:46;;;;;;;4.28;1.25;;;14.20;99.90;;;;;;5058010;28;20064;-82
2022/07/18 01:20:30;;;;;;;6.88;1.75;;;14.10;99.90;;;;;;5052738;28;20033;-83
2022/07/18 01:22:56;;;;;;;1.42;1.02;;;14.20;99.90;;;;;;5057329;28;20090;-82
2022/07/18 01:25:23;;;;;;;1.80;1.20;;;14.20;99.90;;;;;;5056347;28;20024;-83
2022/07/18 01:27:48;;;;;;;2.60;1.10;;;14.20;99.90;;;;;;5067812;28;20039;-81
2022/07/18 01:30:18;;;;;;;3.30;1.13;;;14.20;99.90;;;;;;5070684;28;20468;-82
2022/07/18 01:32:44;;;;;;;1.38;1.10;;;14.20;99.90;;;;;;5060933;28;20039;-82
2022/07/18 01:35:28;;;;;;;6.65;1.58;;;14.20;99.90;;;;;;5069774;28;20028;-82
2022/07/18 01:37:57;;;;;;;3.05;1.00;;;14.10;99.90;;;;;;5060693;28;20024;-83
2022/07/18 01:40:24;;;;;;;4.68;1.50;;;14.10;99.90;;;;;;5063053;28;20040;-82
2022/07/18 01:42:57;;;;;;;2.22;1.40;;;14.10;99.90;;;;;;5070262;28;20082;-82
2022/07/18 01:45:22;;;;;;;3.30;1.40;;;14.10;99.90;;;;;;5069530;28;20111;-82
2022/07/18 01:47:49;;;;;;;1.70;0.90;;;14.10;99.90;;;;;;5058800;28;20116;-82
2022/07/18 01:50:16;;;;;;;2.20;1.10;;;14.10;99.90;;;;;;5060288;28;20048;-82
2022/07/18 01:52:42;;;;;;;5.18;1.65;;;14.10;99.90;;;;;;5055976;28;20035;-82
2022/07/18 01:55:09;;;;;;;6.47;1.10;;;14.00;99.90;;;;;;5056081;28;20481;-82
2022/07/18 01:57:34;;;;;;;2.53;1.30;;;14.00;99.90;;;;;;5061002;28;20032;-83
2022/07/18 02:00:00;;;;;;;2.15;1.00;;;14.00;99.90;;;;;;5075406;28;20025;-82
2022/07/18 02:02:26;;;;;;;1.75;1.00;;;14.00;99.90;;;;;;5063949;28;20021;-82
2022/07/18 02:05:00;;;;;;;2.40;1.27;;;13.90;99.90;;;;;;5060860;28;20028;-82
2022/07/18 02:07:31;;;;;;;2.72;1.30;;;13.90;99.90;;;;;;5064209;28;20103;-83
2022/07/18 02:09:59;;;;;;;1.90;1.00;;;13.90;99.90;;;;;;5056641;28;20558;-82
2022/07/18 02:12:25;;;;;;;1.20;1.10;;;13.90;99.90;;;;;;5062422;28;20086;-82
2022/07/18 02:14:51;;;;;;;3.60;1.63;;;13.90;99.90;;;;;;5060251;28;20064;-82
2022/07/18 02:17:29;;;;;;;2.58;1.25;;;13.80;99.90;;;;;;5056249;28;20053;-82
2022/07/18 02:19:55;;;;;;;3.58;1.00;;;13.80;99.90;;;;;;5058026;28;20025;-83
2022/07/18 02:22:29;;;;;;;5.05;1.67;;;13.70;99.90;;;;;;5067117;28;20048;-83
2022/07/18 02:24:54;;;;;;;6.72;1.50;;;13.70;99.90;;;;;;5055067;28;20067;-82
2022/07/18 02:27:30;;;;;;;3.97;1.42;;;13.70;99.90;;;;;;5058587;28;20037;-82
2022/07/18 02:29:55;;;;;;;2.58;1.10;;;13.70;99.90;;;;;;5061111;28;20021;-82
2022/07/18 02:32:23;;;;;;;2.63;0.88;;;13.70;99.90;;;;;;5061825;28;20074;-82
2022/07/18 02:34:50;;;;;;;2.38;1.30;;;13.70;99.90;;;;;;5066562;28;20028;-82
2022/07/18 02:37:16;;;;;;;1.75;1.00;;;13.70;99.90;;;;;;5055765;28;20037;-82
2022/07/18 02:39:43;;;;;;;2.05;1.38;;;13.70;99.90;;;;;;5062500;28;20047;-82
2022/07/18 02:42:09;;;;;;;4.18;1.30;;;13.60;99.90;;;;;;5056681;28;20036;-83
2022/07/18 02:44:35;;;;;;;2.40;1.45;;;13.60;99.90;;;;;;5056412;28;20029;-83
2022/07/18 02:47:01;;;;;;;3.78;1.20;;;13.60;99.90;;;;;;5061488;28;20112;-83
2022/07/18 02:49:26;;;;;;;3.70;1.60;;;13.50;99.90;;;;;;5060235;28;20025;-82
2022/07/18 02:52:07;;;;;;;5.72;1.45;;;13.50;99.90;;;;;;5074822;28;20472;-82
2022/07/18 02:54:40;;;;;;;4.85;1.20;;;13.50;99.90;;;;;;5059628;28;20078;-83
2022/07/18 02:57:06;;;;;;;1.48;1.10;;;13.50;99.90;;;;;;5061125;28;20024;-82
2022/07/18 02:59:33;;;;;;;6.38;1.80;;;13.40;99.90;;;;;;5059902;28;20032;-82
2022/07/18 03:01:58;;;;;;;3.83;1.35;;;13.50;99.90;;;;;;5063285;28;20021;-82
2022/07/18 03:04:24;;;;;;;6.60;2.30;;;13.40;99.90;;;;;;5069840;28;20043;-82
2022/07/18 03:06:50;;;;;;;3.47;1.60;;;13.40;99.90;;;;;;5061193;28;20603;-82
2022/07/18 03:09:19;;;;;;;1.63;0.95;;;13.30;99.90;;;;;;5056100;28;20039;-82
2022/07/18 03:11:45;;;;;;;1.80;1.00;;;13.30;99.90;;;;;;5058757;28;20051;-82
2022/07/18 03:14:11;;;;;;;2.75;1.30;;;13.30;99.90;;;;;;5067638;28;20105;-82
2022/07/18 03:16:42;;;;;;;1.63;1.00;;;13.40;99.90;;;;;;5065024;28;20024;-82
2022/07/18 03:19:08;;;;;;;1.73;0.93;;;13.40;99.90;;;;;;5066979;28;20048;-82
2022/07/18 03:21:41;;;;;;;3.03;1.23;;;13.40;99.90;;;;;;5054792;28;20042;-83
2022/07/18 03:24:07;;;;;;;2.35;1.02;;;13.40;99.90;;;;;;5053816;28;21248;-82
2022/07/18 03:26:32;;;;;;;1.33;1.05;;;13.30;99.90;;;;;;5066025;28;20017;-82
2022/07/18 03:29:02;;;;;;;4.30;1.20;;;13.30;99.90;;;;;;5057756;28;20029;-83
2022/07/18 03:31:28;;;;;;;2.88;1.33;;;13.30;99.90;;;;;;5068313;28;21782;-82
2022/07/18 03:33:53;;;;;;;2.63;1.00;;;13.30;99.90;;;;;;5055662;28;20037;-82
2022/07/18 03:36:19;;;;;;;2.55;1.27;;;13.30;99.90;;;;;;5060991;28;20579;-82
2022/07/18 03:38:56;;;;;;;4.60;1.92;;;13.30;99.90;;;;;;5055751;28;20025;-82
2022/07/18 03:41:21;;;;;;;4.78;1.40;;;13.40;99.90;;;;;;5062948;28;20057;-82
2022/07/18 03:43:49;;;;;;;5.53;1.60;;;13.40;99.90;;;;;;5056075;28;20071;-83
2022/07/18 03:46:14;;;;;;;1.58;1.20;;;13.40;99.90;;;;;;5072908;28;20547;-82
2022/07/18 03:48:43;;;;;;;2.35;1.30;;;13.40;99.90;;;;;;5062348;28;20104;-82
2022/07/18 03:51:12;;;;;;;3.92;1.17;;;13.40;99.90;;;;;;5073205;28;20418;-82
2022/07/18 03:53:39;;;;;;;2.03;1.17;;;13.40;99.90;;;;;;5072319;28;20411;-82
2022/07/18 03:56:05;;;;;;;2.90;1.40;;;13.40;99.90;;;;;;5068295;28;20032;-82
2022/07/18 03:59:04;;;;;;;1.63;1.20;;;13.30;99.90;;;;;;5054421;28;20380;-82
2022/07/18 04:01:30;;;;;;;1.70;1.02;;;13.30;99.90;;;;;;5057902;28;20045;-82
2022/07/18 04:04:02;;;;;;;3.20;1.20;;;13.30;99.90;;;;;;5060977;28;20021;-81
2022/07/18 04:06:28;;;;;;;1.58;1.15;;;13.40;99.90;;;;;;5054892;28;20094;-82
2022/07/18 04:08:54;;;;;;;2.60;1.30;;;13.30;99.90;;;;;;5054020;28;20029;-82
2022/07/18 04:11:23;;;;;;;1.88;1.20;;;13.40;99.90;;;;;;5069416;28;20041;-82
2022/07/18 04:13:53;;;;;;;3.35;1.30;;;13.40;99.90;;;;;;5072914;28;20107;-82
2022/07/18 04:16:18;;;;;;;4.20;1.65;;;13.40;99.90;;;;;;5070266;28;20083;-82
2022/07/18 04:18:49;;;;;;;4.45;1.15;;;13.50;99.90;;;;;;5073849;28;20036;-82
2022/07/18 04:21:15;;;;;;;2.92;1.55;;;13.50;99.90;;;;;;5073406;28;20032;-82
2022/07/18 04:23:42;;;;;;;2.83;1.25;;;13.50;99.90;;;;;;5066026;28;20140;-82
2022/07/18 04:26:08;;;;;;;1.45;1.23;;;13.60;99.90;;;;;;5068649;28;20036;-82
2022/07/18 04:28:35;;;;;;;2.17;1.25;;;13.70;99.90;;;;;;5063287;28;20024;-82
2022/07/18 04:31:00;;;;;;;1.60;1.08;;;13.80;99.90;;;;;;5053947;28;20358;-82
2022/07/18 04:33:28;;;;;;;1.35;0.82;;;13.80;99.90;;;;;;5070845;28;20027;-82
2022/07/18 04:35:54;;;;;;;2.13;1.50;;;13.90;99.90;;;;;;5066598;28;20474;-81
2022/07/18 04:38:21;;;;;;;2.53;1.08;;;13.90;99.90;;;;;;5065650;28;20102;-82
2022/07/18 04:40:46;;;;;;;4.30;1.20;;;14.00;99.90;;;;;;5058595;28;20021;-82
2022/07/18 04:43:14;;;;;;;2.05;1.13;;;14.10;99.90;;;;;;5058757;28;20476;-82
2022/07/18 04:45:40;;;;;;;4.95;2.17;;;14.10;99.90;;;;;;5053481;28;20028;-81
2022/07/18 04:48:07;;;;;;;2.97;1.33;;;14.10;99.90;;;;;;5055129;28;20037;-81
2022/07/18 04:50:33;;;;;;;1.50;1.10;;;14.20;99.90;;;;;;5055813;28;21369;-81
2022/07/18 04:53:11;;;;;;;2.25;1.00;;;14.20;99.90;;;;;;5073032;28;20087;-82
2022/07/18 04:55:37;;;;;;;1.70;1.00;;;14.30;99.90;;;;;;5072566;28;20067;-82
2022/07/18 04:58:02;;;;;;;3.35;1.23;;;14.30;99.90;;;;;;5072095;28;20063;-82
2022/07/18 05:00:28;;;;;;;2.17;1.73;;;14.40;99.90;;;;;;5072065;28;20032;-82
2022/07/18 05:03:03;;;;;;;2.50;1.35;;;14.40;99.90;;;;;;5073111;28;20037;-82
2022/07/18 05:05:28;;;;;;;3.10;1.50;;;14.50;99.90;;;;;;5072642;28;20157;-82
2022/07/18 05:07:56;;;;;;;4.50;1.50;;;14.50;99.90;;;;;;5063565;28;20115;-82
2022/07/18 05:10:24;;;;;;;3.63;1.55;;;14.60;99.90;;;;;;5069366;28;20032;-82
2022/07/18 05:12:53;;;;;;;2.67;1.33;;;14.70;99.90;;;;;;5063170;28;20059;-82
2022/07/18 05:15:22;;;;;;;2.42;1.40;;;14.70;99.90;;;;;;5052522;28;20021;-82
2022/07/18 05:17:48;;;;;;;5.82;2.30;;;14.80;99.90;;;;;;5052630;28;20515;-81
2022/07/18 05:20:20;;;;;;;5.20;1.67;;;14.90;99.90;;;;;;5064687;28;20025;-82
2022/07/18 05:22:46;;;;;;;8.15;1.90;;;15.00;99.90;;;;;;5051862;28;20043;-82
2022/07/18 05:25:25;;;;;;;3.72;1.25;;;15.10;99.90;;;;;;5052099;28;20031;-82
2022/07/18 05:27:52;;;;;;;2.53;1.50;;;15.20;99.90;;;;;;5052444;28;20464;-81
2022/07/18 05:30:37;;;;;;;3.13;1.10;;;15.30;99.90;;;;;;5054510;28;20032;-82
2022/07/18 05:33:03;;;;;;;6.10;2.03;;;15.40;99.90;;;;;;5051102;28;20028;-81
2022/07/18 05:35:32;;;;;;;8.65;2.28;;;15.50;99.90;;;;;;5052561;28;20477;-82
2022/07/18 05:37:57;;;;;;;4.95;1.70;;;15.70;99.90;;;;;;5062861;28;20033;-82
2022/07/18 05:40:42;;;;;;;5.32;1.50;;;15.90;99.90;;;;;;5072998;28;20491;-82
2022/07/18 05:43:08;;;;;;;2.30;1.20;;;16.10;99.90;;;;;;5062877;28;20104;-82
2022/07/18 05:45:40;;;;;;;5.28;1.48;;;16.10;99.90;;;;;;5058296;28;20105;-82
2022/07/18 05:48:06;;;;;;;3.63;1.45;;;16.20;99.90;;;;;;5069883;28;20032;-82
2022/07/18 05:50:33;;;;;;;1.88;1.05;;;16.30;99.90;;;;;;5073837;28;20078;-82
2022/07/18 05:52:59;;;;;;;1.90;1.25;;;16.30;99.90;;;;;;5057204;28;20372;-82
2022/07/18 05:55:24;;;;;;;6.20;1.70;;;16.40;99.90;;;;;;5060508;28;20035;-82
2022/07/18 05:57:50;;;;;;;7.30;1.38;;;16.40;99.90;;;;;;5066732;28;20044;-82
2022/07/18 06:00:29;;;;;;;7.63;2.03;;;16.50;99.90;;;;;;5051462;28;20107;-82
2022/07/18 06:02:54;;;;;;;7.43;1.48;;;16.50;99.90;;;;;;5050261;28;20029;-82
2022/07/18 06:05:27;;;;;;;5.05;1.95;;;16.60;99.90;;;;;;5053026;28;20542;-82
2022/07/18 06:07:56;;;;;;;12.52;2.10;;;16.70;99.90;;;;;;5062351;28;20373;-82
2022/07/18 06:10:23;;;;;;;6.20;1.52;;;16.90;99.90;;;;;;5050875;28;20038;-82
2022/07/18 06:12:49;;;;;;;3.75;1.63;;;17.00;99.90;;;;;;5061973;28;20036;-82
2022/07/18 06:15:21;;;;;;;10.43;2.08;;;17.00;99.90;;;;;;5056554;28;20028;-82
2022/07/18 06:17:47;;;;;;;6.22;1.45;;;17.20;99.90;;;;;;5060944;28;20029;-82
2022/07/18 06:20:13;;;;;;;4.93;1.63;;;17.30;99.90;;;;;;5061056;28;20054;-82
2022/07/18 06:22:39;;;;;;;11.50;3.28;;;17.40;99.90;;;;;;5056195;28;20025;-82
2022/07/18 06:25:07;;;;;;;6.70;1.83;;;17.40;99.90;;;;;;5058244;28;20499;-83
2022/07/18 06:27:33;;;;;;;5.43;2.08;;;17.50;99.90;;;;;;5053175;28;20075;-82
2022/07/18 06:29:59;;;;;;;6.07;1.73;;;17.60;99.90;;;;;;5055418;28;20063;-83
2022/07/18 06:32:28;;;;;;;8.55;1.67;;;17.80;99.90;;;;;;5068610;28;20035;-83
2022/07/18 06:34:54;;;;;;;12.40;2.13;;;17.80;99.90;;;;;;5064264;28;20086;-83
2022/07/18 06:37:27;;;;;;;9.43;1.70;;;17.80;99.90;;;;;;5059577;28;20097;-83
2022/07/18 06:39:52;;;;;;;10.48;1.67;;;17.90;99.90;;;;;;5069399;28;20040;-83
2022/07/18 06:42:18;;;;;;;5.63;1.63;;;18.00;99.90;;;;;;5055874;28;20033;-83
2022/07/18 06:44:51;;;;;;;6.22;1.33;;;18.10;99.90;;;;;;5057187;28;20272;-83
2022/07/18 06:47:17;;;;;;;4.15;1.35;;;18.20;99.90;;;;;;5060153;28;20119;-83
2022/07/18 06:49:45;;;;;;;10.25;1.60;;;18.20;99.90;;;;;;5062183;28;20103;-84
2022/07/18 06:52:11;;;;;;;8.38;1.52;;;18.30;99.90;;;;;;5059164;28;20017;-83
2022/07/18 06:54:40;;;;;;;10.82;1.35;;;18.30;99.90;;;;;;5057223;28;20017;-82
2022/07/18 06:57:09;;;;;;;4.45;1.58;;;18.40;99.90;;;;;;5056155;28;20036;-82
2022/07/18 06:59:44;;;;;;;10.25;1.95;;;18.50;99.90;;;;;;5056984;28;20112;-83
2022/07/18 07:02:09;;;;;;;5.18;1.77;;;18.60;99.90;;;;;;5069464;28;20124;-83
2022/07/18 07:04:48;;;;;;;9.70;1.58;;;18.70;99.90;;;;;;5069556;28;20563;-83
2022/07/18 07:07:14;;;;;;;13.68;1.52;;;18.80;99.90;;;;;;5055067;28;20035;-83
2022/07/18 07:09:40;;;;;;;5.97;1.25;;;18.80;99.90;;;;;;5055454;28;20017;-83
2022/07/18 07:12:06;;;;;;;3.90;1.73;;;18.90;99.90;;;;;;5054792;28;20392;-83
2022/07/18 07:14:43;;;;;;;10.45;1.83;;;19.00;99.90;;;;;;5054721;28;20021;-82
2022/07/18 07:17:08;;;;;;;4.13;1.75;;;19.10;99.90;;;;;;5054996;28;20028;-83
2022/07/18 07:19:36;;;;;;;6.60;1.65;;;19.20;99.90;;;;;;5054587;28;20446;-83
2022/07/18 07:22:01;;;;;;;9.57;1.83;;;19.30;99.90;;;;;;5053808;28;20021;-83
2022/07/18 07:24:27;;;;;;;10.65;1.70;;;19.50;99.90;;;;;;5053682;28;20021;-83
2022/07/18 07:26:52;;;;;;;11.85;1.73;;;19.60;99.90;;;;;;5054749;28;20032;-83
2022/07/18 07:29:32;;;;;;;12.82;1.88;;;19.70;99.90;;;;;;5054819;28;20494;-83
2022/07/18 07:31:59;;;;;;;7.20;1.63;;;19.80;99.90;;;;;;5054864;28;20029;-83
2022/07/18 07:34:31;;;;;;;4.30;1.27;;;20.00;99.90;;;;;;5054832;28;20029;-83
2022/07/18 07:36:56;;;;;;;8.02;1.92;;;20.10;98.80;;;;;;5054429;28;20028;-83
2022/07/18 07:39:35;;;;;;;6.47;1.77;;;20.10;99.90;;;;;;5054791;28;20460;-83
2022/07/18 07:42:00;;;;;;;7.30;1.80;;;20.30;99.90;;;;;;5055063;28;20365;-83
2022/07/18 07:44:27;;;;;;;6.00;1.95;;;20.40;97.20;;;;;;5059146;28;20032;-82
2022/07/18 07:46:52;;;;;;;6.00;1.88;;;20.40;96.50;;;;;;5072792;28;20051;-83
2022/07/18 07:49:18;;;;;;;10.98;1.83;;;20.50;95.40;;;;;;5074460;28;20017;-83
2022/07/18 07:51:44;;;;;;;12.00;1.90;;;20.50;92.30;;;;;;5056282;28;20025;-83
2022/07/18 07:54:10;;;;;;;4.00;1.42;;;20.80;86.20;;;;;;5058958;28;20035;-83
2022/07/18 07:56:36;;;;;;;5.63;1.63;;;21.00;81.10;;;;;;5066963;28;20455;-83
2022/07/18 07:59:01;;;;;;;10.13;1.85;;;21.20;76.10;;;;;;5056390;28;20056;-82
2022/07/18 08:01:27;;;;;;;3.45;1.40;;;21.30;72.50;;;;;;5064356;28;20028;-83
2022/07/18 08:03:52;;;;;;;20.83;2.00;;;21.40;71.90;;;;;;5061860;28;20086;-82
2022/07/18 08:06:20;;;;;;;15.55;2.17;;;21.40;73.10;;;;;;5060105;28;20024;-83
2022/07/18 08:08:46;;;;;;;11.30;2.05;;;21.50;67.70;;;;;;5073719;28;20032;-83
2022/07/18 08:11:11;;;;;;;6.90;2.45;;;21.50;68.10;;;;;;5073814;28;20048;-83
2022/07/18 08:13:48;;;;;;;5.60;1.60;;;21.60;68.70;;;;;;5073962;28;20115;-83
2022/07/18 08:16:13;;;;;;;3.42;1.52;;;21.80;64.80;;;;;;5074000;28;20017;-83
2022/07/18 08:18:41;;;;;;;5.22;1.77;;;21.90;62.90;;;;;;5073884;28;20027;-83
2022/07/18 08:21:06;;;;;;;5.68;1.75;;;22.00;63.60;;;;;;5073857;28;20119;-83
2022/07/18 08:23:36;;;;;;;8.13;2.30;;;22.10;63.00;;;;;;5073339;28;20103;-83
2022/07/18 08:26:02;;;;;;;3.95;2.03;;;22.10;57.80;;;;;;5073830;28;20031;-83
2022/07/18 08:28:28;;;;;;;6.65;2.17;;;22.20;56.70;;;;;;5073606;28;20032;-83
2022/07/18 08:30:54;;;;;;;9.80;2.58;;;22.30;56.50;;;;;;5072335;28;20020;-83
2022/07/18 08:33:21;;;;;;;2.30;1.52;;;22.30;56.50;;;;;;5073651;28;20024;-83
2022/07/18 08:35:47;;;;;;;7.82;2.38;;;22.30;56.30;;;;;;5072364;28;20484;-83
2022/07/18 08:38:13;;;;;;;11.10;2.85;;;22.30;57.60;;;;;;5073060;28;20020;-83
2022/07/18 08:40:38;;;;;;;13.23;3.15;;;22.40;57.20;;;;;;5073476;28;20358;-83
2022/07/18 08:43:12;;;;;;;6.55;2.35;;;22.40;57.70;;;;;;5073450;28;20052;-83
2022/07/18 08:45:38;;;;;;;5.85;2.00;;;22.50;56.00;;;;;;5073108;28;20032;-83
2022/07/18 08:48:21;;;;;;;10.70;2.55;;;22.50;55.70;;;;;;5059271;28;20378;-83
2022/07/18 08:50:48;;;;;;;8.15;2.47;;;22.50;56.20;;;;;;5057417;28;20025;-83
2022/07/18 08:53:21;;;;;;;8.93;2.65;;;22.60;56.50;;;;;;5065064;28;20467;-83
2022/07/18 08:55:48;;;;;;;9.38;2.58;;;22.70;53.20;;;;;;5061758;28;20040;-83
2022/07/18 08:58:17;;;;;;;5.00;2.53;;;22.70;53.50;;;;;;5073310;28;20060;-83
2022/07/18 09:00:45;;;;;;;9.55;2.50;;;22.80;53.50;;;;;;5065428;28;20051;-83
2022/07/18 09:03:11;;;;;;;6.70;2.10;;;22.90;53.70;;;;;;5062977;28;20104;-83
2022/07/18 09:05:37;;;;;;;7.13;2.70;;;23.00;53.90;;;;;;5054959;28;20528;-83
2022/07/18 09:08:13;;;;;;;5.35;2.78;;;23.10;53.30;;;;;;5052822;28;20021;-83
2022/07/18 09:10:53;;;;;;;8.82;3.47;;;23.20;50.80;;;;;;5056527;28;20481;-83
2022/07/18 09:13:24;;;;;;;5.90;2.35;;;23.30;49.80;;;;;;5053051;28;20488;-83
2022/07/18 09:16:01;;;;;;;6.95;2.35;;;23.40;49.60;;;;;;5052512;28;20067;-83
2022/07/18 09:18:32;;;;;;;6.60;3.22;;;23.50;48.90;;;;;;5071065;28;20703;-83
2022/07/18 09:21:07;;;;;;;10.15;3.20;;;23.50;47.90;;;;;;5066385;28;20032;-83
2022/07/18 09:23:45;;;;;;;5.93;2.80;;;23.60;48.80;;;;;;5054507;28;20126;-83
2022/07/18 09:26:11;;;;;;;7.35;2.88;;;23.60;48.40;;;;;;5070698;28;20021;-83
2022/07/18 09:28:49;;;;;;;5.40;2.53;;;23.60;48.60;;;;;;5060541;28;20089;-83
2022/07/18 09:31:19;;;;;;;5.57;2.28;;;23.70;49.00;;;;;;5056557;28;20094;-82
2022/07/18 09:34:02;;;;;;;4.40;2.33;;;23.70;48.10;;;;;;5060299;28;20032;-83
2022/07/18 09:36:29;;;;;;;5.32;2.25;;;23.70;47.50;;;;;;5062785;28;20056;-82
2022/07/18 09:38:57;;;;;;;6.60;2.10;;;23.80;49.20;;;;;;5055673;28;20099;-82
2022/07/18 09:41:27;;;;;;;5.85;2.10;;;23.80;49.20;;;;;;5066242;28;20021;-83
2022/07/18 09:43:56;;;;;;;5.50;2.10;;;23.90;49.30;;;;;;5080096;28;20024;-82
2022/07/18 09:46:22;;;;;;;6.97;2.20;;;24.00;48.10;;;;;;5065325;28;20079;-83
2022/07/18 09:48:47;;;;;;;4.85;1.73;;;24.00;48.30;;;;;;5072770;28;20036;-83
2022/07/18 09:51:17;;;;;;;6.03;2.22;;;24.10;48.10;;;;;;5066193;28;20590;-83
2022/07/18 09:53:43;;;;;;;4.55;2.30;;;24.20;49.50;;;;;;5066574;28;20381;-83
2022/07/18 09:56:23;;;;;;;4.93;2.10;;;24.20;47.60;;;;;;5052580;28;20029;-83
2022/07/18 09:58:53;;;;;;;4.55;1.98;;;24.40;47.40;;;;;;5059712;28;20032;-83
2022/07/18 10:01:22;;;;;;;5.85;2.03;;;24.50;46.40;;;;;;5070376;28;20059;-83
2022/07/18 10:03:49;;;;;;;3.65;2.03;;;24.50;46.90;;;;;;5050576;28;20037;-82
2022/07/18 10:06:15;;;;;;;3.72;1.75;;;24.70;46.80;;;;;;5066689;28;20024;-83
2022/07/18 10:08:41;;;;;;;4.63;2.10;;;24.70;47.30;;;;;;5060110;28;20036;-83
2022/07/18 10:11:07;;;;;;;5.75;1.85;;;24.90;46.90;;;;;;5064718;28;20396;-83
2022/07/18 10:13:37;;;;;;;7.25;2.20;;;24.90;46.80;;;;;;5074301;28;20032;-83
2022/07/18 10:16:03;;;;;;;4.40;1.88;;;24.90;46.00;;;;;;5069488;28;20028;-83
2022/07/18 10:18:33;;;;;;;5.70;1.55;;;24.90;46.20;;;;;;5074008;28;20040;-83
2022/07/18 10:21:04;;;;;;;3.70;1.77;;;25.10;45.80;;;;;;5074280;28;20062;-83
2022/07/18 10:23:37;;;;;;;4.45;2.25;;;25.20;45.50;;;;;;5060495;28;20362;-83
2022/07/18 10:26:23;;;;;;;4.97;2.15;;;25.30;44.80;;;;;;5072641;28;20464;-83
2022/07/18 10:29:00;;;;;;;4.63;1.92;;;25.40;45.70;;;;;;5056089;28;20484;-83
2022/07/18 10:31:29;;;;;;;7.05;1.70;;;25.40;44.80;;;;;;5071685;28;20091;-83
2022/07/18 10:34:08;;;;;;;4.97;2.00;;;25.50;43.50;;;;;;5075469;28;20035;-83
2022/07/18 10:36:35;;;;;;;3.65;1.95;;;25.70;43.30;;;;;;5061825;28;20481;-83
2022/07/18 10:39:20;;;;;;;2.97;1.75;;;26.00;43.40;;;;;;5055897;28;20021;-83
2022/07/18 10:41:51;;;;;;;8.95;1.75;;;26.00;42.50;;;;;;5055939;28;20018;-83
2022/07/18 10:44:28;;;;;;;3.97;1.95;;;26.00;42.50;;;;;;5054612;28;20025;-83
2022/07/18 10:47:12;;;;;;;6.32;1.75;;;26.00;43.10;;;;;;5055808;28;20036;-83
2022/07/18 10:49:49;;;;;;;4.65;1.85;;;26.00;42.30;;;;;;5057826;28;20028;-83
2022/07/18 10:52:25;;;;;;;5.93;1.92;;;26.00;41.80;;;;;;5073741;28;20032;-83
2022/07/18 10:55:27;;;;;;;3.00;1.58;;;26.00;42.50;;;;;;5056463;28;20029;-83
2022/07/18 10:57:54;;;;;;;8.65;2.15;;;26.00;42.90;;;;;;5060611;28;20392;-83
2022/07/18 11:00:23;;;;;;;5.43;2.13;;;26.10;41.20;;;;;;5055734;28;20032;-83
2022/07/18 11:03:11;;;;;;;3.83;2.03;;;26.30;41.60;;;;;;5065531;28;20141;-83
2022/07/18 11:05:50;;;;;;;3.80;1.33;;;26.40;42.60;;;;;;5066870;28;20041;-83
2022/07/18 11:08:18;;;;;;;2.63;1.67;;;26.50;41.80;;;;;;5053400;28;20500;-83
2022/07/18 11:10:50;;;;;;;2.80;1.70;;;26.60;40.80;;;;;;5057826;28;20100;-84
2022/07/18 11:13:27;;;;;;;2.72;1.67;;;26.70;41.50;;;;;;5054795;28;20029;-83
2022/07/18 11:16:12;;;;;;;5.50;2.10;;;26.80;40.30;;;;;;5059227;28;20025;-83
2022/07/18 11:18:40;;;;;;;5.57;1.75;;;26.80;41.20;;;;;;5066858;28;20047;-85
2022/07/18 11:21:26;;;;;;;3.45;1.80;;;26.90;41.40;;;;;;5063873;28;20491;-84
2022/07/18 11:23:58;;;;;;;5.35;1.98;;;26.90;41.20;;;;;;5056616;28;20025;-83
2022/07/18 11:26:30;;;;;;;4.88;1.95;;;26.90;41.00;;;;;;5073939;28;20033;-83
2022/07/18 11:29:18;;;;;;;4.18;2.00;;;26.90;41.50;;;;;;5058581;28;20052;-83
2022/07/18 11:31:47;;;;;;;8.27;1.95;;;27.00;41.30;;;;;;5073065;28;20060;-83
2022/07/18 11:34:19;;;;;;;1.98;1.45;;;27.20;39.70;;;;;;5058953;28;20421;-83
2022/07/18 11:36:46;;;;;;;4.55;1.80;;;27.40;39.10;;;;;;5073162;28;20029;-84
2022/07/18 11:39:16;;;;;;;7.28;2.53;;;27.60;39.50;;;;;;5059320;28;20025;-84
2022/07/18 11:41:56;;;;;;;5.97;2.03;;;27.70;39.20;;;;;;5058904;28;20032;-84
2022/07/18 11:44:26;;;;;;;2.03;1.42;;;27.70;39.60;;;;;;5074672;28;20427;-83
2022/07/18 11:47:10;;;;;;;5.68;2.00;;;27.70;39.80;;;;;;5075672;28;20472;-83
2022/07/18 11:49:37;;;;;;;4.78;1.88;;;27.60;39.40;;;;;;5054638;28;20033;-83
2022/07/18 11:52:04;;;;;;;7.07;1.80;;;27.60;39.00;;;;;;5054319;28;20028;-84
2022/07/18 11:54:37;;;;;;;4.30;1.77;;;27.60;40.60;;;;;;5057321;28;20473;-83
2022/07/18 11:57:03;;;;;;;5.60;1.92;;;27.80;39.50;;;;;;5074505;28;20059;-83
2022/07/18 11:59:40;;;;;;;5.57;1.85;;;28.00;38.30;;;;;;5060512;28;20063;-83
2022/07/18 12:02:07;;;;;;;6.03;1.40;;;28.20;38.30;;;;;;5056085;28;20082;-83
2022/07/18 12:04:33;;;;;;;4.65;1.75;;;28.10;38.00;;;;;;5068801;28;20025;-83
2022/07/18 12:07:24;;;;;;;3.85;1.33;;;28.20;37.50;;;;;;5070609;28;20028;-84
2022/07/18 12:09:51;;;;;;;4.95;1.63;;;28.20;38.20;;;;;;5067704;28;20124;-83
2022/07/18 12:12:20;;;;;;;6.57;1.52;;;28.10;38.50;;;;;;5053997;28;20050;-83
2022/07/18 12:14:56;;;;;;;8.63;1.70;;;28.00;38.60;;;;;;5071281;28;20175;-84
2022/07/18 12:17:25;;;;;;;7.55;2.08;;;28.00;38.80;;;;;;5072507;28;20025;-83
2022/07/18 12:19:51;;;;;;;3.25;1.85;;;28.20;38.20;;;;;;5064681;28;20115;-84
2022/07/18 12:22:17;;;;;;;3.42;1.77;;;28.30;38.00;;;;;;5059793;28;20096;-83
2022/07/18 12:24:45;;;;;;;5.28;1.42;;;28.40;38.40;;;;;;5053631;28;20056;-84
2022/07/18 12:27:17;;;;;;;5.93;2.20;;;28.30;37.60;;;;;;5055318;28;20064;-84
2022/07/18 12:30:19;;;;;;;4.82;1.40;;;28.20;38.60;;;;;;5064236;28;20021;-84
2022/07/18 12:32:56;;;;;;;3.25;1.70;;;28.20;38.70;;;;;;5053617;28;20039;-84
2022/07/18 12:35:36;;;;;;;2.55;1.70;;;28.20;38.30;;;;;;5066486;28;20031;-84
2022/07/18 12:38:12;;;;;;;6.32;1.85;;;28.20;38.40;;;;;;5073393;28;20075;-83
2022/07/18 12:40:54;;;;;;;8.43;1.80;;;28.30;39.00;;;;;;5072906;28;20047;-83
2022/07/18 12:43:31;;;;;;;8.63;1.58;;;28.40;38.20;;;;;;5072391;28;20024;-83
2022/07/18 12:46:01;;;;;;;3.88;1.85;;;28.50;38.20;;;;;;5052314;28;20029;-83
2022/07/18 12:48:28;;;;;;;6.00;1.92;;;28.50;38.50;;;;;;5053247;28;20025;-84
2022/07/18 12:51:06;;;;;;;3.03;2.00;;;28.50;38.60;;;;;;5051732;28;20492;-83
2022/07/18 12:53:34;;;;;;;7.10;1.70;;;28.50;37.20;;;;;;5061140;28;20445;-83
2022/07/18 12:56:03;;;;;;;4.22;1.60;;;28.50;37.60;;;;;;5053468;28;20028;-84
2022/07/18 12:58:29;;;;;;;2.45;1.65;;;28.70;36.60;;;;;;5052754;28;20025;-83
2022/07/18 13:00:57;;;;;;;3.63;1.38;;;28.60;37.00;;;;;;5054743;28;20102;-84